createdAt,value
2018-07-24T00:01:57.736Z,4.50
2018-07-24T00:04:26.618Z,4.03
2018-07-24T00:06:57.904Z,3.70
2018-07-24T00:09:26.486Z,4.03
2018-07-24T00:11:55.056Z,3.70
2018-07-24T00:14:23.732Z,3.90
2018-07-24T00:16:52.729Z,4.10
2018-07-24T00:19:21.185Z,4.27
2018-07-24T00:21:50.283Z,4.00
2018-07-24T00:24:18.936Z,4.03
2018-07-24T00:26:47.387Z,4.17
2018-07-24T00:29:16.188Z,4.03
2018-07-24T00:31:44.919Z,4.00
2018-07-24T00:34:13.811Z,4.33
2018-07-24T00:36:42.237Z,4.20
2018-07-24T00:39:11.676Z,4.33
2018-07-24T00:41:40.660Z,4.40
2018-07-24T00:44:09.089Z,4.27
2018-07-24T00:46:37.543Z,4.00
2018-07-24T00:49:05.992Z,4.37
2018-07-24T00:51:34.637Z,4.13
2018-07-24T00:54:03.383Z,4.30
2018-07-24T00:56:31.804Z,4.50
2018-07-24T00:59:00.372Z,5.10
2018-07-24T01:01:29.080Z,5.33
2018-07-24T01:03:57.773Z,4.57
2018-07-24T01:06:26.289Z,4.73
2018-07-24T01:08:55.311Z,4.80
2018-07-24T01:11:24.120Z,5.00
2018-07-24T01:13:52.552Z,4.93
2018-07-24T01:16:21.433Z,5.10
2018-07-24T01:18:50.443Z,4.70
2018-07-24T01:21:19.037Z,4.67
2018-07-24T01:23:47.543Z,4.97
2018-07-24T01:26:16.035Z,5.43
2018-07-24T01:28:44.883Z,5.27
2018-07-24T01:31:13.769Z,5.37
2018-07-24T01:33:42.217Z,5.87
2018-07-24T01:36:11.460Z,5.77
2018-07-24T01:38:40.761Z,4.80
2018-07-24T01:41:09.209Z,4.67
2018-07-24T01:43:37.649Z,4.63
2018-07-24T01:46:06.294Z,4.73
2018-07-24T01:48:34.737Z,5.03
2018-07-24T01:51:03.161Z,5.20
2018-07-24T01:53:32.265Z,5.40
2018-07-24T01:56:01.047Z,5.67
2018-07-24T01:58:29.467Z,4.90
2018-07-24T02:01:02.785Z,5.53
2018-07-24T02:03:32.086Z,5.00
2018-07-24T02:06:00.629Z,5.93
2018-07-24T02:08:29.065Z,6.43
2018-07-24T02:10:57.789Z,6.47
2018-07-24T02:13:26.589Z,6.57
2018-07-24T02:15:55.063Z,6.87
2018-07-24T02:18:23.497Z,6.17
2018-07-24T02:20:52.790Z,5.57
2018-07-24T02:23:21.277Z,5.63
2018-07-24T02:25:49.797Z,5.60
2018-07-24T02:28:18.345Z,5.40
2018-07-24T02:30:46.840Z,5.10
2018-07-24T02:33:15.885Z,4.73
2018-07-24T02:35:44.805Z,5.47
2018-07-24T02:38:13.758Z,5.37
2018-07-24T02:40:42.205Z,6.20
2018-07-24T02:43:11.025Z,6.80
2018-07-24T02:45:39.694Z,7.20
2018-07-24T02:48:08.450Z,7.50
2018-07-24T02:50:43.564Z,6.23
2018-07-24T02:53:12.010Z,5.83
2018-07-24T02:55:40.469Z,5.47
2018-07-24T02:58:09.474Z,6.33
2018-07-24T03:00:37.890Z,5.60
2018-07-24T03:03:06.812Z,5.10
2018-07-24T03:05:35.304Z,5.57
2018-07-24T03:08:03.747Z,5.17
2018-07-24T03:10:32.719Z,5.20
2018-07-24T03:13:01.185Z,5.30
2018-07-24T03:15:29.628Z,5.60
2018-07-24T03:17:58.196Z,5.07
2018-07-24T03:20:27.685Z,5.20
2018-07-24T03:22:56.180Z,5.43
2018-07-24T03:25:24.665Z,4.93
2018-07-24T03:27:53.241Z,5.20
2018-07-24T03:30:21.681Z,4.83
2018-07-24T03:32:50.111Z,4.97
2018-07-24T03:35:18.749Z,4.83
2018-07-24T03:37:47.612Z,4.73
2018-07-24T03:40:16.422Z,4.83
2018-07-24T03:42:44.882Z,5.23
2018-07-24T03:45:13.501Z,4.67
2018-07-24T03:47:41.933Z,4.87
2018-07-24T03:50:10.706Z,4.73
2018-07-24T03:52:39.750Z,4.87
2018-07-24T03:55:08.425Z,4.30
2018-07-24T03:57:36.993Z,4.47
2018-07-24T04:00:06.074Z,4.70
2018-07-24T04:02:34.757Z,3.90
2018-07-24T04:05:03.294Z,4.50
2018-07-24T04:07:31.757Z,4.53
2018-07-24T04:10:00.281Z,4.50
2018-07-24T04:12:28.853Z,4.30
2018-07-24T04:14:57.459Z,4.37
2018-07-24T04:17:25.893Z,4.67
2018-07-24T04:19:54.441Z,4.30
2018-07-24T04:22:22.900Z,4.40
2018-07-24T04:24:51.359Z,4.03
2018-07-24T04:27:20.165Z,3.97
2018-07-24T04:29:49.088Z,3.73
2018-07-24T04:32:17.568Z,4.07
2018-07-24T04:34:46.350Z,3.57
2018-07-24T04:37:15.810Z,3.70
2018-07-24T04:39:44.267Z,3.33
2018-07-24T04:42:12.929Z,3.30
2018-07-24T04:44:41.809Z,3.35
2018-07-24T04:47:10.661Z,2.90
2018-07-24T04:49:39.160Z,2.72
2018-07-24T04:52:07.635Z,3.07
2018-07-24T04:54:36.664Z,3.25
2018-07-24T04:57:05.211Z,2.90
2018-07-24T04:59:33.896Z,3.30
2018-07-24T05:02:02.609Z,2.70
2018-07-24T05:04:31.069Z,2.58
2018-07-24T05:06:59.571Z,3.02
2018-07-24T05:09:28.396Z,2.58
2018-07-24T05:11:57.024Z,3.47
2018-07-24T05:14:25.525Z,2.90
2018-07-24T05:16:54.070Z,3.15
2018-07-24T05:19:22.737Z,2.85
2018-07-24T05:21:51.174Z,2.95
2018-07-24T05:24:19.614Z,3.15
2018-07-24T05:26:48.525Z,2.90
2018-07-24T05:29:17.033Z,2.90
2018-07-24T05:31:45.783Z,3.22
2018-07-24T05:34:14.348Z,2.72
2018-07-24T05:36:42.774Z,2.50
2018-07-24T05:39:12.531Z,2.75
2018-07-24T05:41:41.640Z,2.50
2018-07-24T05:44:10.807Z,2.70
2018-07-24T05:46:39.300Z,2.70
2018-07-24T05:49:08.339Z,2.83
2018-07-24T05:51:37.223Z,2.90
2018-07-24T05:54:05.659Z,2.67
2018-07-24T05:56:34.109Z,2.10
2018-07-24T05:59:02.752Z,2.27
2018-07-24T06:01:31.186Z,2.75
2018-07-24T06:03:59.741Z,2.35
2018-07-24T06:06:28.406Z,2.60
2018-07-24T06:08:56.941Z,2.50
2018-07-24T06:11:25.484Z,2.50
2018-07-24T06:13:53.916Z,2.37
2018-07-24T06:16:22.597Z,2.72
2018-07-24T06:18:51.217Z,3.10
2018-07-24T06:21:19.669Z,2.52
2018-07-24T06:23:48.200Z,2.42
2018-07-24T06:26:17.034Z,2.40
2018-07-24T06:28:45.516Z,2.27
2018-07-24T06:31:13.958Z,2.27
2018-07-24T06:33:43.042Z,2.33
2018-07-24T06:36:11.480Z,1.90
2018-07-24T06:38:39.914Z,2.40
2018-07-24T06:41:08.673Z,2.12
2018-07-24T06:43:37.122Z,1.90
2018-07-24T06:46:05.809Z,2.17
2018-07-24T06:48:34.781Z,2.12
2018-07-24T06:51:03.595Z,2.20
2018-07-24T06:53:32.009Z,1.80
2018-07-24T06:56:01.120Z,1.92
2018-07-24T06:58:29.890Z,2.02
2018-07-24T07:00:58.650Z,2.10
2018-07-24T07:03:27.427Z,2.05
2018-07-24T07:05:56.063Z,2.52
2018-07-24T07:08:24.589Z,2.02
2018-07-24T07:10:53.065Z,2.30
2018-07-24T07:13:21.658Z,2.10
2018-07-24T07:15:50.077Z,1.95
2018-07-24T07:18:21.566Z,2.00
2018-07-24T07:20:50.191Z,2.27
2018-07-24T07:23:18.955Z,2.30
2018-07-24T07:25:47.438Z,1.92
2018-07-24T07:28:15.966Z,2.30
2018-07-24T07:30:44.466Z,1.82
2018-07-24T07:33:13.216Z,1.85
2018-07-24T07:35:41.729Z,2.35
2018-07-24T07:38:10.176Z,2.22
2018-07-24T07:40:39.305Z,1.95
2018-07-24T07:43:08.170Z,1.98
2018-07-24T07:45:36.885Z,2.02
2018-07-24T07:48:05.919Z,2.00
2018-07-24T07:50:34.765Z,2.50
2018-07-24T07:53:03.283Z,1.95
2018-07-24T07:55:31.997Z,2.00
2018-07-24T07:58:00.817Z,1.50
2018-07-24T08:00:29.329Z,2.02
2018-07-24T08:02:58.458Z,2.10
2018-07-24T08:05:27.010Z,1.70
2018-07-24T08:07:55.509Z,1.92
2018-07-24T08:10:24.076Z,2.30
2018-07-24T08:12:52.550Z,2.12
2018-07-24T08:15:21.452Z,2.08
2018-07-24T08:17:50.273Z,2.12
2018-07-24T08:20:18.703Z,1.90
2018-07-24T08:22:47.293Z,2.20
2018-07-24T08:25:15.937Z,2.45
2018-07-24T08:27:44.443Z,2.40
2018-07-24T08:30:13.091Z,2.42
2018-07-24T08:32:41.693Z,2.30
2018-07-24T08:35:10.142Z,2.08
2018-07-24T08:37:38.813Z,2.37
2018-07-24T08:40:07.409Z,2.30
2018-07-24T08:42:35.877Z,2.15
2018-07-24T08:45:05.361Z,2.22
2018-07-24T08:47:34.327Z,2.22
2018-07-24T08:50:09.882Z,2.33
2018-07-24T08:52:38.669Z,2.20
2018-07-24T08:55:07.350Z,2.10
2018-07-24T08:57:36.064Z,2.85
2018-07-24T09:00:05.317Z,2.70
2018-07-24T09:02:33.744Z,2.37
2018-07-24T09:05:02.270Z,2.10
2018-07-24T09:07:30.833Z,2.50
2018-07-24T09:09:59.255Z,2.60
2018-07-24T09:12:28.161Z,2.45
2018-07-24T09:14:57.913Z,2.70
2018-07-24T09:17:26.357Z,2.45
2018-07-24T09:19:56.299Z,2.12
2018-07-24T09:22:25.264Z,2.52
2018-07-24T09:24:54.018Z,2.33
2018-07-24T09:27:22.709Z,2.45
2018-07-24T09:29:51.599Z,2.42
2018-07-24T09:32:20.069Z,2.47
2018-07-24T09:34:48.729Z,2.40
2018-07-24T09:37:17.620Z,2.42
2018-07-24T09:39:46.066Z,2.27
2018-07-24T09:42:14.869Z,2.37
2018-07-24T09:44:43.773Z,2.20
2018-07-24T09:47:12.202Z,2.52
2018-07-24T09:49:41.146Z,2.25
2018-07-24T09:52:09.934Z,2.40
2018-07-24T09:54:38.387Z,2.40
2018-07-24T09:57:06.913Z,2.55
2018-07-24T09:59:35.622Z,2.30
2018-07-24T10:02:04.083Z,2.60
2018-07-24T10:04:32.665Z,4.60
2018-07-24T10:07:01.843Z,3.10
2018-07-24T10:09:30.642Z,2.90
2018-07-24T10:11:59.113Z,2.70
2018-07-24T10:14:27.996Z,2.45
2018-07-24T10:16:56.754Z,3.22
2018-07-24T10:19:25.218Z,3.10
2018-07-24T10:21:54.405Z,2.83
2018-07-24T10:24:23.100Z,3.45
2018-07-24T10:26:51.946Z,2.95
2018-07-24T10:29:20.654Z,4.33
2018-07-24T10:31:49.106Z,3.30
2018-07-24T10:34:18.257Z,2.92
2018-07-24T10:36:46.761Z,3.00
2018-07-24T10:39:15.481Z,3.72
2018-07-24T10:41:44.485Z,4.20
2018-07-24T10:44:13.355Z,7.47
2018-07-24T10:46:41.896Z,2.70
2018-07-24T10:49:10.631Z,3.83
2018-07-24T10:51:39.922Z,3.67
2018-07-24T10:54:08.682Z,3.05
2018-07-24T10:56:37.122Z,3.25
2018-07-24T10:59:06.181Z,2.65
2018-07-24T11:01:35.029Z,2.90
2018-07-24T11:04:03.644Z,2.92
2018-07-24T11:06:32.478Z,2.67
2018-07-24T11:09:01.049Z,2.67
2018-07-24T11:11:30.249Z,3.12
2018-07-24T11:13:59.118Z,2.50
2018-07-24T11:16:27.560Z,2.67
2018-07-24T11:18:56.038Z,2.60
2018-07-24T11:21:23.964Z,3.30
2018-07-24T11:23:52.518Z,2.92
2018-07-24T11:26:20.957Z,2.55
2018-07-24T11:28:49.730Z,2.62
2018-07-24T11:31:18.215Z,3.00
2018-07-24T11:33:46.657Z,2.92
2018-07-24T11:36:15.492Z,3.33
2018-07-24T11:38:44.243Z,3.02
2018-07-24T11:41:12.723Z,3.20
2018-07-24T11:43:41.520Z,3.70
2018-07-24T11:46:10.297Z,3.30
2018-07-24T11:48:38.965Z,3.10
2018-07-24T11:51:07.657Z,3.00
2018-07-24T11:53:36.481Z,3.05
2018-07-24T11:56:05.017Z,3.62
2018-07-24T11:58:33.591Z,4.20
2018-07-24T12:01:02.062Z,2.95
2018-07-24T12:03:30.814Z,2.65
2018-07-24T12:05:59.676Z,3.12
2018-07-24T12:08:28.301Z,2.30
2018-07-24T12:10:57.227Z,3.00
2018-07-24T12:13:25.862Z,2.75
2018-07-24T12:15:55.075Z,3.17
2018-07-24T12:18:24.468Z,2.58
2018-07-24T12:20:53.599Z,2.72
2018-07-24T12:23:22.309Z,2.50
2018-07-24T12:25:51.101Z,3.05
2018-07-24T12:28:20.093Z,3.58
2018-07-24T12:30:48.538Z,3.40
2018-07-24T12:33:17.261Z,2.60
2018-07-24T12:35:46.779Z,3.27
2018-07-24T12:38:15.249Z,2.30
2018-07-24T12:40:44.666Z,2.50
2018-07-24T12:43:13.317Z,3.37
2018-07-24T12:45:41.737Z,2.35
2018-07-24T12:48:10.198Z,2.50
2018-07-24T12:50:38.822Z,2.40
2018-07-24T12:53:07.541Z,2.77
2018-07-24T12:55:36.373Z,2.52
2018-07-24T12:58:05.236Z,2.80
2018-07-24T13:00:34.117Z,2.70
2018-07-24T13:03:02.558Z,2.22
2018-07-24T13:05:31.301Z,2.75
2018-07-24T13:07:59.962Z,2.45
2018-07-24T13:10:28.650Z,2.87
2018-07-24T13:12:57.295Z,3.02
2018-07-24T13:15:25.737Z,2.77
2018-07-24T13:17:55.481Z,2.50
2018-07-24T13:20:25.446Z,2.77
2018-07-24T13:22:53.922Z,2.80
2018-07-24T13:25:22.945Z,2.58
2018-07-24T13:27:51.826Z,3.00
2018-07-24T13:30:20.301Z,2.85
2018-07-24T13:32:49.173Z,2.90
2018-07-24T13:35:17.981Z,2.58
2018-07-24T13:37:46.430Z,2.70
2018-07-24T13:40:15.349Z,3.40
2018-07-24T13:42:43.993Z,2.90
2018-07-24T13:45:12.441Z,2.70
2018-07-24T13:47:40.872Z,3.83
2018-07-24T13:50:09.675Z,4.37
2018-07-24T13:52:38.134Z,2.77
2018-07-24T13:55:06.704Z,2.60
2018-07-24T13:57:36.277Z,2.50
2018-07-24T14:00:05.968Z,3.05
2018-07-24T14:02:34.821Z,2.62
2018-07-24T14:05:03.961Z,2.60
2018-07-24T14:07:32.430Z,2.30
2018-07-24T14:10:00.882Z,2.80
2018-07-24T14:12:30.049Z,2.33
2018-07-24T14:14:59.110Z,2.42
2018-07-24T14:17:27.565Z,2.40
2018-07-24T14:19:56.373Z,2.30
2018-07-24T14:22:24.994Z,2.30
2018-07-24T14:24:53.437Z,2.67
2018-07-24T14:27:22.429Z,2.77
2018-07-24T14:29:50.971Z,2.95
2018-07-24T14:32:19.398Z,2.58
2018-07-24T14:34:48.269Z,2.85
2018-07-24T14:37:16.979Z,2.45
2018-07-24T14:39:45.411Z,2.60
2018-07-24T14:42:14.274Z,2.80
2018-07-24T14:44:43.189Z,2.50
2018-07-24T14:47:12.420Z,2.70
2018-07-24T14:49:41.212Z,3.10
2018-07-24T14:52:09.662Z,2.22
2018-07-24T14:54:38.331Z,2.20
2018-07-24T14:57:07.346Z,2.33
2018-07-24T14:59:36.185Z,2.25
2018-07-24T15:02:04.785Z,2.17
2018-07-24T15:04:33.742Z,2.72
2018-07-24T15:07:02.245Z,3.22
2018-07-24T15:09:31.207Z,2.90
2018-07-24T15:12:00.087Z,2.45
2018-07-24T15:14:28.526Z,2.80
2018-07-24T15:16:57.167Z,2.52
2018-07-24T15:19:26.333Z,3.08
2018-07-24T15:21:54.821Z,2.47
2018-07-24T15:24:23.538Z,2.62
2018-07-24T15:26:52.417Z,2.90
2018-07-24T15:29:21.082Z,2.87
2018-07-24T15:31:49.682Z,3.17
2018-07-24T15:34:18.403Z,2.80
2018-07-24T15:36:46.951Z,6.03
2018-07-24T15:39:15.413Z,3.55
2018-07-24T15:41:44.702Z,4.05
2018-07-24T15:44:13.394Z,2.80
2018-07-24T15:46:41.935Z,2.90
2018-07-24T15:49:10.461Z,3.47
2018-07-24T15:51:38.897Z,2.70
2018-07-24T15:54:07.469Z,2.90
2018-07-24T15:56:36.313Z,2.72
2018-07-24T15:59:04.801Z,2.85
2018-07-24T16:01:33.734Z,2.62
2018-07-24T16:04:02.689Z,2.65
2018-07-24T16:06:31.437Z,2.77
2018-07-24T16:09:01.416Z,2.92
2018-07-24T16:11:30.086Z,3.05
2018-07-24T16:13:58.509Z,2.67
2018-07-24T16:16:26.958Z,2.80
2018-07-24T16:18:56.315Z,2.70
2018-07-24T16:21:25.733Z,2.80
2018-07-24T16:23:54.689Z,2.75
2018-07-24T16:26:23.604Z,3.05
2018-07-24T16:28:52.346Z,2.60
2018-07-24T16:31:21.149Z,3.30
2018-07-24T16:33:50.017Z,3.58
2018-07-24T16:36:18.795Z,3.50
2018-07-24T16:38:47.234Z,3.25
2018-07-24T16:41:15.901Z,3.15
2018-07-24T16:43:44.797Z,3.40
2018-07-24T16:46:13.520Z,3.95
2018-07-24T16:48:42.406Z,3.08
2018-07-24T16:51:10.866Z,4.30
2018-07-24T16:53:39.530Z,3.08
2018-07-24T16:56:08.139Z,3.45
2018-07-24T16:58:36.633Z,3.27
2018-07-24T17:01:05.954Z,3.60
2018-07-24T17:03:34.691Z,3.70
2018-07-24T17:06:03.144Z,4.15
2018-07-24T17:08:31.593Z,4.60
2018-07-24T17:11:00.227Z,5.25
2018-07-24T17:13:28.757Z,4.92
2018-07-24T17:15:57.342Z,5.47
2018-07-24T17:18:25.994Z,3.12
2018-07-24T17:20:54.853Z,2.50
2018-07-24T17:23:23.471Z,2.55
2018-07-24T17:25:52.391Z,2.72
2018-07-24T17:28:21.450Z,3.55
2018-07-24T17:30:49.930Z,14.95
2018-07-24T17:33:19.037Z,2.60
2018-07-24T17:35:48.082Z,2.50
2018-07-24T17:38:16.818Z,2.50
2018-07-24T17:40:45.736Z,2.83
2018-07-24T17:43:14.181Z,2.52
2018-07-24T17:45:42.883Z,2.95
2018-07-24T17:48:11.498Z,2.60
2018-07-24T17:50:39.923Z,2.80
2018-07-24T17:53:08.446Z,2.50
2018-07-24T17:55:37.836Z,2.40
2018-07-24T17:58:06.273Z,2.85
2018-07-24T18:00:34.717Z,2.45
2018-07-24T18:03:03.758Z,2.77
2018-07-24T18:05:32.548Z,2.58
2018-07-24T18:08:01.316Z,2.30
2018-07-24T18:10:30.333Z,2.55
2018-07-24T18:12:59.400Z,2.87
2018-07-24T18:15:28.203Z,2.45
2018-07-24T18:17:56.721Z,4.47
2018-07-24T18:20:25.358Z,2.40
2018-07-24T18:22:53.993Z,2.40
2018-07-24T18:25:22.653Z,3.02
2018-07-24T18:27:51.115Z,2.85
2018-07-24T18:30:19.889Z,3.92
2018-07-24T18:32:48.565Z,2.55
2018-07-24T18:35:17.002Z,3.90
2018-07-24T18:37:45.901Z,4.37
2018-07-24T18:40:14.765Z,3.17
2018-07-24T18:42:43.432Z,3.22
2018-07-24T18:45:12.241Z,2.70
2018-07-24T18:47:40.990Z,2.92
2018-07-24T18:50:09.499Z,2.50
2018-07-24T18:52:37.961Z,2.60
2018-07-24T18:55:06.469Z,2.25
2018-07-24T18:57:34.927Z,2.80
2018-07-24T19:00:03.424Z,2.77
2018-07-24T19:02:32.228Z,2.58
2018-07-24T19:05:00.734Z,2.60
2018-07-24T19:07:29.729Z,2.90
2018-07-24T19:09:58.633Z,2.47
2018-07-24T19:12:27.104Z,2.65
2018-07-24T19:14:56.229Z,2.77
2018-07-24T19:17:25.521Z,2.85
2018-07-24T19:19:54.733Z,2.60
2018-07-24T19:22:23.198Z,2.72
2018-07-24T19:24:52.222Z,2.40
2018-07-24T19:27:20.851Z,2.85
2018-07-24T19:29:49.377Z,2.58
2018-07-24T19:32:17.854Z,2.67
2018-07-24T19:34:46.618Z,2.62
2018-07-24T19:37:15.240Z,2.80
2018-07-24T19:39:44.546Z,2.45
2018-07-24T19:42:13.028Z,2.70
2018-07-24T19:44:42.036Z,2.83
2018-07-24T19:47:11.803Z,2.30
2018-07-24T19:49:40.301Z,2.75
2018-07-24T19:52:08.917Z,2.65
2018-07-24T19:54:38.096Z,2.52
2018-07-24T19:57:06.602Z,2.58
2018-07-24T19:59:35.125Z,2.85
2018-07-24T20:02:03.989Z,2.62
2018-07-24T20:04:32.662Z,2.60
2018-07-24T20:07:01.115Z,2.75
2018-07-24T20:09:33.221Z,2.87
2018-07-24T20:12:02.721Z,2.60
2018-07-24T20:14:31.670Z,2.50
2018-07-24T20:17:00.116Z,2.50
2018-07-24T20:19:28.753Z,2.35
2018-07-24T20:21:57.644Z,2.40
2018-07-24T20:24:27.341Z,2.72
2018-07-24T20:26:56.173Z,2.33
2018-07-24T20:29:25.247Z,2.50
2018-07-24T20:31:53.738Z,2.50
2018-07-24T20:34:22.189Z,2.40
2018-07-24T20:36:51.889Z,2.37
2018-07-24T20:39:20.567Z,2.58
2018-07-24T20:41:49.012Z,2.52
2018-07-24T20:44:18.790Z,2.45
2018-07-24T20:46:47.890Z,2.37
2018-07-24T20:49:16.325Z,2.50
2018-07-24T20:51:45.234Z,2.55
2018-07-24T20:54:14.058Z,2.70
2018-07-24T20:56:42.566Z,2.35
2018-07-24T20:59:11.706Z,2.50
2018-07-24T21:01:40.409Z,2.42
2018-07-24T21:04:09.140Z,2.40
2018-07-24T21:06:38.198Z,2.98
2018-07-24T21:09:09.973Z,2.33
2018-07-24T21:11:40.173Z,2.30
2018-07-24T21:14:09.924Z,2.47
2018-07-24T21:16:39.315Z,2.50
2018-07-24T21:19:08.382Z,2.60
2018-07-24T21:21:38.419Z,2.30
2018-07-24T21:24:07.290Z,2.60
2018-07-24T21:26:35.795Z,2.85
2018-07-24T21:29:04.344Z,2.45
2018-07-24T21:31:32.907Z,2.80
2018-07-24T21:34:01.366Z,2.83
2018-07-24T21:36:30.306Z,2.52
2018-07-24T21:38:59.513Z,2.95
2018-07-24T21:41:28.017Z,2.58
2018-07-24T21:43:56.631Z,2.50
2018-07-24T21:46:25.299Z,3.08
2018-07-24T21:48:53.844Z,2.50
2018-07-24T21:51:22.441Z,2.65
2018-07-24T21:53:51.588Z,3.15
2018-07-24T21:56:20.027Z,3.30
2018-07-24T21:58:48.737Z,2.85
2018-07-24T22:01:17.261Z,2.62
2018-07-24T22:03:45.702Z,3.08
2018-07-24T22:06:14.731Z,3.05
2018-07-24T22:08:43.374Z,3.20
2018-07-24T22:11:11.874Z,2.92
2018-07-24T22:13:39.286Z,3.40
2018-07-24T22:16:08.043Z,3.27
2018-07-24T22:18:37.913Z,3.10
2018-07-24T22:21:06.957Z,3.23
2018-07-24T22:23:35.787Z,3.05
2018-07-24T22:26:04.614Z,3.90
2018-07-24T22:28:33.457Z,3.45
2018-07-24T22:31:01.942Z,3.65
2018-07-24T22:33:30.705Z,3.70
2018-07-24T22:35:59.618Z,4.40
2018-07-24T22:38:28.107Z,4.08
2018-07-24T22:40:56.760Z,4.37
2018-07-24T22:43:25.869Z,3.85
2018-07-24T22:45:55.168Z,4.00
2018-07-24T22:48:24.617Z,4.17
2018-07-24T22:50:53.472Z,4.10
2018-07-24T22:53:22.039Z,3.67
2018-07-24T22:55:50.482Z,3.55
2018-07-24T22:58:19.399Z,3.97
2018-07-24T23:00:47.886Z,3.87
2018-07-24T23:03:16.324Z,4.40
2018-07-24T23:05:45.239Z,4.47
2018-07-24T23:08:13.725Z,4.37
2018-07-24T23:10:42.253Z,4.80
2018-07-24T23:13:11.021Z,4.40
2018-07-24T23:15:39.857Z,5.00
2018-07-24T23:18:08.294Z,4.97
2018-07-24T23:20:37.693Z,4.50
2018-07-24T23:23:06.997Z,4.27
2018-07-24T23:25:35.462Z,4.57
2018-07-24T23:28:03.905Z,4.83
2018-07-24T23:30:33.839Z,4.67
2018-07-24T23:33:02.477Z,5.07
2018-07-24T23:35:30.933Z,5.47
2018-07-24T23:37:59.771Z,4.80
2018-07-24T23:40:28.521Z,4.83
2018-07-24T23:42:57.803Z,4.73
2018-07-24T23:45:26.291Z,5.33
2018-07-24T23:47:55.465Z,5.23
2018-07-24T23:50:24.775Z,5.60
2018-07-24T23:52:53.439Z,5.47
2018-07-24T23:55:21.865Z,5.17
2018-07-24T23:57:51.350Z,5.33
